Alna, Maine
Current Conditions -  °F | °C
As of 4:53 PM on Wednesday 22 Oct 2014 (Local Time) from KIWI Reporting Station
Overcast Overcast  
Wind Chill: 43°   Ceiling: 1200
Heat Index: 48°   Visibility: 8mi
Dew Point: 46°   Wind: 10mph
Humidity: 93%   Direction: 20°NNE
Pressure: 30.07"   Gusts: 23mph
Location:  44.11°N, 69.6°W
Report Text: KIWI 222053Z AUTO 02009G20KT 340V050 8SM OVC012 09/08 A3007 RMK AO2 RAE09 SLP184 P0001 60023 T00890078 55001
Loading
Personal Weather Stations






























Interactive Weather Map
Tropical Storm Tracking
New forecast layout! Learn more

10-Day Weather Forecast

Advertisements
Track Severe Weather on mobile